Главная страница
METAR-TAF:

METAR-TAF

Аэропорты :

Яссы, Румыния

широта: 47-10N, долгота: 027-38E, высота над уровнем моря: 102 м

Текущие метеонаблюдения

Эта сводка был подготовлена 17 минут назад, в 02:30 UTC
Ветер 3 Узел от западный-юго-западный
Температура 19°C
Влажность 94%
Давление 1019 hPa
Видимость 10 км и более
Нет облачности ниже 1500 м, и нет кучево-дождевой облачности

METAR: LRIA 210230Z 25003KT CAVOK 19/18 Q1019

Время: 05:47 (02:47 UTC)

Прогноз

Эта сводка был подготовлена 47 минут назад, в 02:00 UTC
Прогноз действительный с 21-го 03 UTC до 21-го 12 UTC
Ветер 4 Узел от западно-северо-западный
Видимость 10 км и более
Нет облачности ниже 1500 м, и нет кучево-дождевой облачности

TAF: LRIA 210200Z 2103/2112 30004KT CAVOK

Метеонаблюдения и прогнозы для более 4000 аэропортов (сводки METAR и TAF).

Имеющиеся станции представлены на карте желтыми и красными точками.

Чтобы увидеть название станции, наведите на нее мышь.

Затем щелкните, чтобы увидеть метеонаблюдения и метеопрогнозы.

Управление картой: чтобы увеличить масштаб, щелкните зеленые кнопки с черным крестиком; чтобы уменьшить масштаб, щелкните зеленую кнопку с тире; для просмотра соседних карт щелкайте зеленые стрелки.


METAR-TAF: